Estación Meteorológica Peña el Pijo (Robertgarden) [ 02/03/23 03:27:42 CET ]

Fecha Hora Presion(HPa) Temp (°C) Humedad % Rocio (°C) Viento ( m/s) Direccion Lluvia 1Hora(mm) Lluvia 24H(mm) LLuvia Total(mm)
2010-Sep-20 01:01:15 1012.200 13.5 83 10.6         158.50
2010-Sep-20 02:01:15 1012.000 12.8 85 10.3         158.50
2010-Sep-20 03:01:11 1012.100 12.1 87 10.0         158.50
2010-Sep-20 04:01:12 1012.000 12.4 88 10.4         158.50
2010-Sep-20 05:01:14 1011.500 12.6 89 10.8         158.50
2010-Sep-20 06:01:17 1011.400 12.8 89 11.0         158.50
2010-Sep-20 07:01:15 1011.500 13.0 90 11.4         158.50
2010-Sep-20 08:01:16 1011.400 13.2 90 11.6         158.50
2010-Sep-20 09:01:14 1012.500 14.3 89 12.5         158.50
2010-Sep-20 10:01:12 1013.100 15.6 89 13.7         158.50
2010-Sep-20 11:01:14 1012.700 16.0 89 14.2         158.50
2010-Sep-20 12:01:23 1013.400 17.0 87 14.8         158.50
2010-Sep-20 13:01:16 1012.900 18.9 79 15.2         158.50
2010-Sep-20 14:01:16 1012.000 21.0 72 15.7         158.50
2010-Sep-20 15:01:12 1011.400 23.3 62 15.6         158.50
2010-Sep-20 16:01:16 1010.700 23.6 58 14.8         158.50
2010-Sep-20 17:01:19 1010.600 20.8 64 13.7         158.50
2010-Sep-20 18:01:21 1011.000 19.1 72 13.9         158.50
2010-Sep-20 19:01:19 1010.800 17.7 77 13.6         158.50
2010-Sep-20 20:06:21 1011.300 16.8 84 14.1         158.50
2010-Sep-20 21:01:14 1011.400 14.9 86 12.6         158.50
2010-Sep-20 22:01:14 1012.300 14.9 90 13.3         158.50
2010-Sep-20 23:01:11 1013.000 15.3 86 13.0         158.50

Temperatura Máxima:23°    Temperatura Mínima:12°
Presión Máxima:1013.400 Hpa    Presión Mínima:1010.600 Hpa


Volver